Terminal Aerodrome Forecast
Issued by NWS Sterling, VA

Current Version | Previous Version | Text Only | Print | Product List | Glossary Off
Versions: 1 2 3 4 5 6 7 8 9 10 11 12 13 14 15 16 17 18 19 20 21 22 23

949
FTUS41 KLWX 260531
TAFDCA
TAF
KDCA 260531Z 2606/2706 VRB03KT P6SM SCT025 BKN040
     FM260800 14004KT P6SM BKN025 OVC040
     FM261200 14004KT 5SM -DZ BR BKN015 OVC040
     FM261500 17006KT P6SM BKN015 OVC040
     FM261800 17010G18KT P6SM BKN025 OVC040
     FM270400 19009KT 5SM -SHRA BKN015 OVC050=

USA.gov is the U.S. government's official web portal to all federal, state and local government web resources and services.